createdAt,value
2022-10-28T00:01:14.778Z,11.80
2022-10-28T00:03:50.489Z,11.80
2022-10-28T00:06:20.965Z,11.90
2022-10-28T00:08:48.385Z,11.90
2022-10-28T00:11:21.227Z,11.90
2022-10-28T00:13:48.977Z,11.90
2022-10-28T00:16:21.981Z,11.90
2022-10-28T00:18:50.294Z,11.90
2022-10-28T00:21:21.178Z,11.90
2022-10-28T00:23:48.132Z,11.90
2022-10-28T00:26:17.671Z,11.90
2022-10-28T00:28:51.441Z,11.90
2022-10-28T00:31:20.131Z,11.80
2022-10-28T00:33:47.164Z,11.90
2022-10-28T00:36:23.142Z,11.80
2022-10-28T00:38:52.073Z,11.80
2022-10-28T00:41:22.504Z,11.80
2022-10-28T00:43:54.487Z,11.80
2022-10-28T00:46:44.462Z,11.80
2022-10-28T00:49:30.183Z,11.80
2022-10-28T00:52:01.521Z,11.60
2022-10-28T00:54:30.058Z,11.60
2022-10-28T00:56:58.798Z,11.60
2022-10-28T00:59:32.691Z,11.60
2022-10-28T01:02:00.139Z,11.70
2022-10-28T01:04:27.893Z,11.60
2022-10-28T01:06:56.704Z,11.60
2022-10-28T01:12:04.006Z,11.70
2022-10-28T01:14:33.718Z,11.60
2022-10-28T01:17:31.264Z,11.60
2022-10-28T01:20:19.299Z,11.60
2022-10-28T01:23:07.334Z,11.60
2022-10-28T01:25:58.090Z,11.60
2022-10-28T01:28:46.780Z,11.60
2022-10-28T01:31:25.638Z,11.50
2022-10-28T01:33:54.386Z,11.40
2022-10-28T01:36:32.109Z,11.40
2022-10-28T01:39:28.416Z,11.50
2022-10-28T01:42:08.259Z,11.50
2022-10-28T01:44:49.443Z,11.50
2022-10-28T01:47:34.629Z,11.50
2022-10-28T01:50:12.839Z,11.50
2022-10-28T01:52:40.885Z,11.50
2022-10-28T01:55:20.043Z,11.50
2022-10-28T01:57:50.502Z,11.50
2022-10-28T02:00:17.603Z,11.50
2022-10-28T02:02:47.489Z,11.50
2022-10-28T02:05:39.514Z,11.40
2022-10-28T02:08:18.754Z,11.50
2022-10-28T02:11:00.745Z,11.50
2022-10-28T02:13:46.685Z,11.60
2022-10-28T02:16:37.867Z,11.60
2022-10-28T02:19:32.634Z,11.70
2022-10-28T02:22:02.349Z,11.70
2022-10-28T02:24:29.145Z,11.70
2022-10-28T02:27:07.933Z,11.70
2022-10-28T02:29:42.758Z,11.70
2022-10-28T02:32:15.936Z,11.80
2022-10-28T02:34:46.984Z,11.90
2022-10-28T02:37:20.076Z,12.00
2022-10-28T02:39:52.301Z,12.00
2022-10-28T02:42:25.993Z,12.10
2022-10-28T02:45:02.805Z,12.10
2022-10-28T02:47:35.920Z,12.20
2022-10-28T02:50:08.882Z,12.20
2022-10-28T02:52:36.679Z,12.20
2022-10-28T02:55:06.005Z,12.30
2022-10-28T02:57:40.238Z,12.30
2022-10-28T03:00:10.744Z,12.40
2022-10-28T03:02:37.793Z,12.30
2022-10-28T03:05:07.062Z,12.30
2022-10-28T03:07:34.276Z,12.30
2022-10-28T03:10:01.206Z,12.40
2022-10-28T03:12:28.084Z,12.40
2022-10-28T03:14:54.950Z,12.40
2022-10-28T03:17:21.838Z,12.50
2022-10-28T03:19:48.714Z,12.50
2022-10-28T03:22:15.692Z,12.50
2022-10-28T03:24:42.569Z,12.60
2022-10-28T03:27:09.477Z,12.50
2022-10-28T03:29:36.356Z,12.60
2022-10-28T03:32:03.302Z,12.60
2022-10-28T03:34:30.189Z,12.60
2022-10-28T03:36:57.055Z,12.70
2022-10-28T03:39:24.289Z,12.80
2022-10-28T03:41:51.228Z,12.80
2022-10-28T03:44:18.227Z,12.80
2022-10-28T03:46:45.212Z,12.90
2022-10-28T03:49:12.082Z,12.90
2022-10-28T03:51:38.928Z,12.70
2022-10-28T03:54:05.762Z,12.70
2022-10-28T03:56:32.717Z,12.80
2022-10-28T03:58:59.601Z,12.80
2022-10-28T04:01:26.592Z,12.80
2022-10-28T04:03:53.599Z,12.80
2022-10-28T04:06:20.590Z,12.80
2022-10-28T04:08:47.514Z,12.70
2022-10-28T04:11:14.364Z,12.50
2022-10-28T04:13:41.187Z,12.50
2022-10-28T04:16:08.066Z,12.50
2022-10-28T04:18:35.625Z,12.50
2022-10-28T04:21:03.162Z,12.50
2022-10-28T04:23:30.043Z,12.60
2022-10-28T04:25:56.953Z,12.70
2022-10-28T04:28:26.449Z,12.80
2022-10-28T04:30:53.366Z,12.70
2022-10-28T04:33:20.254Z,12.70
2022-10-28T04:35:47.233Z,12.60
2022-10-28T04:38:15.379Z,12.60
2022-10-28T04:40:42.701Z,12.50
2022-10-28T04:43:11.759Z,12.50
2022-10-28T04:45:39.469Z,12.50
2022-10-28T04:48:06.832Z,12.50
2022-10-28T04:50:33.805Z,12.50
2022-10-28T04:53:10.403Z,12.50
2022-10-28T04:55:37.347Z,12.50
2022-10-28T04:58:05.895Z,12.50
2022-10-28T05:00:32.861Z,12.60
2022-10-28T05:03:03.539Z,12.70
2022-10-28T05:05:30.501Z,12.60
2022-10-28T05:07:57.482Z,12.60
2022-10-28T05:10:24.768Z,12.60
2022-10-28T05:12:51.644Z,12.50
2022-10-28T05:15:18.528Z,12.60
2022-10-28T05:17:46.612Z,12.70
2022-10-28T05:20:17.512Z,12.70
2022-10-28T05:22:50.246Z,12.70
2022-10-28T05:25:17.752Z,12.70
2022-10-28T05:27:45.254Z,12.70
2022-10-28T05:30:13.019Z,12.50
2022-10-28T05:32:40.100Z,12.50
2022-10-28T05:35:07.574Z,12.50
2022-10-28T05:37:34.560Z,12.40
2022-10-28T05:40:01.707Z,12.50
2022-10-28T05:42:28.598Z,12.60
2022-10-28T05:44:55.498Z,12.60
2022-10-28T05:47:22.375Z,12.70
2022-10-28T05:49:49.252Z,12.80
2022-10-28T05:52:16.112Z,12.80
2022-10-28T05:54:42.987Z,12.70
2022-10-28T05:57:09.894Z,12.70
2022-10-28T05:59:36.874Z,12.70
2022-10-28T06:02:03.712Z,12.80
2022-10-28T06:04:31.119Z,12.80
2022-10-28T06:06:57.978Z,12.70
2022-10-28T06:09:27.639Z,12.70
2022-10-28T06:11:53.146Z,12.80
2022-10-28T06:14:19.992Z,12.80
2022-10-28T06:16:46.854Z,12.90
2022-10-28T06:19:13.701Z,12.80
2022-10-28T06:21:40.735Z,12.90
2022-10-28T06:24:12.087Z,12.80
2022-10-28T06:26:39.591Z,12.90
2022-10-28T06:29:09.489Z,13.00
2022-10-28T06:31:40.297Z,12.90
2022-10-28T06:34:11.113Z,12.90
2022-10-28T06:36:38.401Z,12.90
2022-10-28T06:39:05.867Z,13.00
2022-10-28T06:41:33.426Z,13.00
2022-10-28T06:44:00.406Z,13.10
2022-10-28T06:46:27.774Z,13.10
2022-10-28T06:48:56.534Z,13.00
2022-10-28T06:51:24.013Z,13.10
2022-10-28T06:53:52.166Z,13.10
2022-10-28T06:56:19.115Z,13.10
2022-10-28T06:58:50.848Z,13.20
2022-10-28T07:01:18.099Z,13.30
2022-10-28T07:03:45.511Z,13.40
2022-10-28T07:08:39.303Z,13.50
2022-10-28T07:11:06.206Z,13.60
2022-10-28T07:13:33.054Z,13.50
2022-10-28T07:16:00.918Z,13.40
2022-10-28T07:18:29.723Z,13.40
2022-10-28T07:21:00.871Z,13.40
2022-10-28T07:23:28.375Z,13.50
2022-10-28T07:25:56.487Z,13.50
2022-10-28T07:28:24.747Z,13.50
2022-10-28T07:30:51.675Z,13.60
2022-10-28T07:33:18.535Z,13.60
2022-10-28T07:35:45.508Z,13.80
2022-10-28T07:38:12.364Z,13.70
2022-10-28T07:40:39.301Z,13.80
2022-10-28T07:43:06.156Z,13.90
2022-10-28T07:45:34.081Z,14.00
2022-10-28T07:48:00.897Z,14.10
2022-10-28T07:50:27.909Z,14.30
2022-10-28T07:52:55.029Z,14.50
2022-10-28T07:55:22.258Z,14.50
2022-10-28T07:57:49.540Z,14.70
2022-10-28T08:00:16.808Z,14.80
2022-10-28T08:02:43.757Z,14.90
2022-10-28T08:05:10.719Z,15.00
2022-10-28T08:07:38.770Z,15.10
2022-10-28T08:10:07.031Z,15.10
2022-10-28T08:12:34.120Z,15.10
2022-10-28T08:15:01.005Z,15.20
2022-10-28T08:17:27.844Z,15.30
2022-10-28T08:19:54.731Z,15.30
2022-10-28T08:22:21.591Z,15.40
2022-10-28T08:24:48.489Z,15.50
2022-10-28T08:27:15.366Z,15.50
2022-10-28T08:29:42.234Z,15.50
2022-10-28T08:32:09.783Z,15.60
2022-10-28T08:34:39.370Z,15.60
2022-10-28T08:37:09.684Z,15.70
2022-10-28T08:39:36.660Z,15.80
2022-10-28T08:42:22.578Z,15.90
2022-10-28T08:45:19.169Z,16.00
2022-10-28T08:48:18.053Z,16.10
2022-10-28T08:50:53.104Z,16.10
2022-10-28T08:53:28.482Z,16.10
2022-10-28T08:56:04.657Z,16.20
2022-10-28T08:58:36.177Z,16.20
2022-10-28T09:01:09.136Z,16.30
2022-10-28T09:03:43.781Z,16.30
2022-10-28T09:06:11.328Z,16.40
2022-10-28T09:08:42.349Z,16.50
2022-10-28T09:11:26.427Z,16.50
2022-10-28T09:14:09.267Z,16.50
2022-10-28T09:16:53.955Z,16.60
2022-10-28T09:19:45.116Z,16.90
2022-10-28T09:22:39.987Z,17.30
2022-10-28T09:25:39.302Z,17.60
2022-10-28T09:28:50.624Z,17.90
2022-10-28T09:31:47.534Z,18.10
2022-10-28T09:34:24.357Z,18.20
2022-10-28T09:37:24.396Z,18.40
2022-10-28T09:39:57.435Z,18.60
2022-10-28T09:42:35.100Z,18.80
2022-10-28T09:45:11.892Z,18.90
2022-10-28T09:47:45.902Z,18.90
2022-10-28T09:50:22.709Z,18.90
2022-10-28T09:53:11.409Z,18.80
2022-10-28T09:55:38.501Z,18.70
2022-10-28T09:58:05.783Z,18.60
2022-10-28T10:00:33.065Z,18.50
2022-10-28T10:03:00.037Z,18.40
2022-10-28T10:05:27.913Z,18.40
2022-10-28T10:08:06.711Z,18.50
2022-10-28T10:10:56.026Z,18.80
2022-10-28T10:13:29.594Z,19.10
2022-10-28T10:16:02.006Z,19.50
2022-10-28T10:18:32.985Z,19.70
2022-10-28T10:21:00.307Z,19.90
2022-10-28T10:23:37.465Z,20.10
2022-10-28T10:26:13.530Z,20.30
2022-10-28T10:28:45.226Z,20.50
2022-10-28T10:31:22.857Z,20.60
2022-10-28T10:33:51.912Z,20.40
2022-10-28T10:36:31.550Z,20.30
2022-10-28T10:39:03.017Z,20.30
2022-10-28T10:41:44.844Z,20.30
2022-10-28T10:44:20.880Z,20.60
2022-10-28T10:47:10.481Z,21.00
2022-10-28T10:49:37.427Z,21.50
2022-10-28T10:52:20.769Z,22.00
2022-10-28T10:55:03.507Z,22.40
2022-10-28T10:57:31.164Z,22.20
2022-10-28T10:59:58.443Z,22.10
2022-10-28T11:02:34.859Z,22.10
2022-10-28T11:05:09.320Z,22.20
2022-10-28T11:07:40.473Z,22.10
2022-10-28T11:10:23.909Z,21.90
2022-10-28T11:12:56.228Z,22.00
2022-10-28T11:15:25.276Z,21.70
2022-10-28T11:18:02.172Z,21.60
2022-10-28T11:20:44.433Z,21.40
2022-10-28T11:23:33.096Z,21.50
2022-10-28T11:26:05.050Z,21.60
2022-10-28T11:29:13.377Z,21.60
2022-10-28T11:32:07.067Z,21.60
2022-10-28T11:34:55.418Z,21.50
2022-10-28T11:37:44.387Z,21.50
2022-10-28T11:40:13.387Z,21.20
2022-10-28T11:42:46.206Z,21.10
2022-10-28T11:45:20.542Z,21.20
2022-10-28T11:48:13.891Z,21.30
2022-10-28T11:50:46.766Z,21.40
2022-10-28T11:53:41.153Z,21.70
2022-10-28T11:56:18.743Z,22.10
2022-10-28T11:58:48.709Z,22.20
2022-10-28T12:01:53.255Z,22.40
2022-10-28T12:04:41.488Z,22.50
2022-10-28T12:07:43.241Z,22.50
2022-10-28T12:10:29.856Z,22.40
2022-10-28T12:13:12.821Z,22.40
2022-10-28T12:16:06.504Z,22.60
2022-10-28T12:19:00.223Z,22.70
2022-10-28T12:21:36.797Z,22.70
2022-10-28T12:24:10.303Z,22.50
2022-10-28T12:26:51.802Z,22.30
2022-10-28T12:29:30.091Z,22.30
2022-10-28T12:32:10.511Z,22.40
2022-10-28T12:35:01.218Z,22.60
2022-10-28T12:37:35.901Z,22.70
2022-10-28T12:40:21.311Z,23.00
2022-10-28T12:43:11.850Z,22.90
2022-10-28T12:45:40.707Z,22.70
2022-10-28T12:48:19.819Z,22.60
2022-10-28T12:51:00.276Z,22.60
2022-10-28T12:54:00.567Z,22.60
2022-10-28T12:56:39.805Z,22.60
2022-10-28T12:59:28.279Z,22.50
2022-10-28T13:01:56.827Z,22.30
2022-10-28T13:04:24.055Z,22.30
2022-10-28T13:07:09.419Z,22.20
2022-10-28T13:09:45.676Z,22.50
2022-10-28T13:12:30.667Z,22.60
2022-10-28T13:15:44.277Z,22.70
2022-10-28T13:18:33.548Z,22.80
2022-10-28T13:21:12.608Z,23.10
2022-10-28T13:23:58.974Z,23.30
2022-10-28T13:26:35.984Z,23.50
2022-10-28T13:29:07.323Z,23.70
2022-10-28T13:31:39.207Z,23.60
2022-10-28T13:34:07.321Z,23.70
2022-10-28T13:36:38.629Z,23.60
2022-10-28T13:39:41.075Z,23.70
2022-10-28T13:42:18.920Z,23.80
2022-10-28T13:44:54.118Z,23.80
2022-10-28T13:47:26.087Z,23.90
2022-10-28T13:50:08.770Z,23.70
2022-10-28T13:52:44.513Z,23.60
2022-10-28T13:55:14.645Z,23.60
2022-10-28T13:57:47.627Z,23.60
2022-10-28T14:00:19.510Z,23.50
2022-10-28T14:02:55.478Z,23.40
2022-10-28T14:05:30.988Z,23.20
2022-10-28T14:08:01.168Z,23.00
2022-10-28T14:10:29.629Z,22.90
2022-10-28T14:12:56.904Z,22.70
2022-10-28T14:15:29.309Z,22.70
2022-10-28T14:18:16.175Z,22.60
2022-10-28T14:20:48.821Z,22.50
2022-10-28T14:23:21.948Z,22.40
2022-10-28T14:25:51.879Z,22.40
2022-10-28T14:28:28.098Z,22.40
2022-10-28T14:31:11.527Z,22.40
2022-10-28T14:33:44.537Z,22.40
2022-10-28T14:36:17.464Z,22.50
2022-10-28T14:38:53.265Z,22.50
2022-10-28T14:41:42.048Z,22.40
2022-10-28T14:44:27.815Z,22.20
2022-10-28T14:47:20.571Z,22.00
2022-10-28T14:50:19.139Z,21.90
2022-10-28T14:52:48.101Z,21.80
2022-10-28T14:55:29.833Z,21.70
2022-10-28T14:58:20.503Z,21.60
2022-10-28T15:00:58.600Z,21.40
2022-10-28T15:03:25.555Z,21.40
2022-10-28T15:05:52.529Z,21.30
2022-10-28T15:08:19.708Z,21.20
2022-10-28T15:10:49.595Z,21.10
2022-10-28T15:13:18.152Z,21.00
2022-10-28T15:15:57.348Z,20.90
2022-10-28T15:18:26.304Z,20.80
2022-10-28T15:21:10.846Z,20.70
2022-10-28T15:23:37.951Z,20.60
2022-10-28T15:26:07.371Z,20.40
2022-10-28T15:28:34.459Z,20.20
2022-10-28T15:31:01.487Z,20.10
2022-10-28T15:33:36.860Z,20.00
2022-10-28T15:36:24.338Z,20.00
2022-10-28T15:39:08.681Z,19.90
2022-10-28T15:41:46.580Z,19.80
2022-10-28T15:44:27.421Z,19.60
2022-10-28T15:46:56.356Z,19.50
2022-10-28T15:49:38.835Z,19.40
2022-10-28T15:52:18.095Z,19.30
2022-10-28T15:54:56.562Z,19.10
2022-10-28T15:57:26.190Z,18.90
2022-10-28T16:00:32.328Z,18.80
2022-10-28T16:03:01.675Z,18.70
2022-10-28T16:05:32.074Z,18.50
2022-10-28T16:08:06.521Z,18.40
2022-10-28T16:10:43.262Z,18.40
2022-10-28T16:13:18.878Z,18.30
2022-10-28T16:15:54.002Z,18.10
2022-10-28T16:18:24.814Z,18.10
2022-10-28T16:20:52.753Z,18.10
2022-10-28T16:23:22.638Z,18.00
2022-10-28T16:25:51.798Z,17.80
2022-10-28T16:28:25.649Z,17.90
2022-10-28T16:30:58.235Z,18.10
2022-10-28T16:33:29.361Z,17.90
2022-10-28T16:35:56.308Z,17.70
2022-10-28T16:38:26.118Z,17.80
2022-10-28T16:40:54.058Z,17.60
2022-10-28T16:43:26.570Z,17.60
2022-10-28T16:45:55.222Z,17.60
2022-10-28T16:48:24.859Z,17.40
2022-10-28T16:50:54.343Z,17.30
2022-10-28T16:53:22.750Z,17.10
2022-10-28T16:55:49.673Z,17.00
2022-10-28T16:58:17.397Z,17.10
2022-10-28T17:00:46.352Z,17.00
2022-10-28T17:03:17.329Z,17.00
2022-10-28T17:05:44.275Z,16.80
2022-10-28T17:08:11.890Z,16.80
2022-10-28T17:10:40.485Z,16.70
2022-10-28T17:13:17.995Z,16.70
2022-10-28T17:15:45.765Z,16.60
2022-10-28T17:18:15.068Z,16.50
2022-10-28T17:20:42.289Z,16.40
2022-10-28T17:23:09.389Z,16.40
2022-10-28T17:25:36.532Z,16.30
2022-10-28T17:28:03.722Z,16.40
2022-10-28T17:30:31.828Z,16.30
2022-10-28T17:32:58.731Z,16.20
2022-10-28T17:35:25.781Z,16.20
2022-10-28T17:37:53.068Z,16.10
2022-10-28T17:40:20.316Z,16.10
2022-10-28T17:42:47.480Z,16.10
2022-10-28T17:45:17.977Z,16.00
2022-10-28T17:47:48.297Z,15.90
2022-10-28T17:50:15.410Z,15.80
2022-10-28T17:52:42.587Z,15.70
2022-10-28T17:55:10.371Z,15.70
2022-10-28T17:57:37.242Z,15.60
2022-10-28T18:00:04.542Z,15.60
2022-10-28T18:02:40.363Z,15.60
2022-10-28T18:05:07.838Z,15.50
2022-10-28T18:07:34.803Z,15.40
2022-10-28T18:10:01.749Z,15.50
2022-10-28T18:12:28.584Z,15.50
2022-10-28T18:14:55.474Z,15.50
2022-10-28T18:17:22.349Z,15.40
2022-10-28T18:19:49.262Z,15.40
2022-10-28T18:22:16.166Z,15.40
2022-10-28T18:24:43.434Z,15.40
2022-10-28T18:27:10.242Z,15.40
2022-10-28T18:29:37.147Z,15.40
2022-10-28T18:32:04.624Z,15.40
2022-10-28T18:34:32.199Z,15.40
2022-10-28T18:36:59.108Z,15.30
2022-10-28T18:39:26.000Z,15.40
2022-10-28T18:41:52.959Z,15.40
2022-10-28T18:44:22.620Z,15.40
2022-10-28T18:46:51.298Z,15.30
2022-10-28T18:49:18.309Z,15.40
2022-10-28T18:51:45.267Z,15.40
2022-10-28T18:54:12.106Z,15.40
2022-10-28T18:56:40.254Z,15.40
2022-10-28T18:59:07.900Z,15.40
2022-10-28T19:01:35.140Z,15.40
2022-10-28T19:04:04.178Z,15.30
2022-10-28T19:06:33.193Z,15.30
2022-10-28T19:09:02.177Z,15.30
2022-10-28T19:11:30.380Z,15.40
2022-10-28T19:13:58.890Z,15.30
2022-10-28T19:16:27.014Z,15.20
2022-10-28T19:18:58.128Z,15.20
2022-10-28T19:21:25.930Z,15.10
2022-10-28T19:23:53.095Z,15.10
2022-10-28T19:26:20.028Z,15.10
2022-10-28T19:28:48.919Z,15.10
2022-10-28T19:31:26.351Z,15.10
2022-10-28T19:33:54.335Z,15.10
2022-10-28T19:36:30.556Z,15.00
2022-10-28T19:38:58.082Z,15.00
2022-10-28T19:41:26.943Z,15.00
2022-10-28T19:43:58.115Z,15.00
2022-10-28T19:46:26.603Z,15.00
2022-10-28T19:48:55.392Z,15.00
2022-10-28T19:51:25.300Z,14.90
2022-10-28T19:53:58.305Z,14.90
2022-10-28T19:56:26.241Z,14.90
2022-10-28T19:58:58.899Z,14.90
2022-10-28T20:01:28.493Z,14.90
2022-10-28T20:03:56.273Z,14.90
2022-10-28T20:06:25.571Z,14.80
2022-10-28T20:08:53.080Z,14.80
2022-10-28T20:11:25.905Z,14.90
2022-10-28T20:13:55.540Z,14.90
2022-10-28T20:16:23.634Z,14.70
2022-10-28T20:18:50.668Z,14.80
2022-10-28T20:21:19.620Z,14.70
2022-10-28T20:26:17.053Z,14.90
2022-10-28T20:28:43.729Z,14.80
2022-10-28T20:31:17.589Z,14.80
2022-10-28T20:33:49.274Z,14.70
2022-10-28T20:36:25.130Z,14.60
2022-10-28T20:39:14.091Z,14.70
2022-10-28T20:41:42.299Z,14.70
2022-10-28T20:44:09.310Z,14.50
2022-10-28T20:46:36.731Z,14.60
2022-10-28T20:49:04.208Z,14.70
2022-10-28T20:51:32.635Z,14.70
2022-10-28T20:54:00.001Z,14.70
2022-10-28T20:56:29.091Z,14.60
2022-10-28T20:58:57.764Z,14.60
2022-10-28T21:01:33.089Z,14.70
2022-10-28T21:04:02.473Z,14.60
2022-10-28T21:06:30.008Z,14.60
2022-10-28T21:08:57.065Z,14.60
2022-10-28T21:11:25.536Z,14.50
2022-10-28T21:13:54.540Z,14.50
2022-10-28T21:16:22.015Z,14.50
2022-10-28T21:18:49.710Z,14.50
2022-10-28T21:21:17.141Z,14.50
2022-10-28T21:23:43.845Z,14.50
2022-10-28T21:26:12.052Z,14.40
2022-10-28T21:28:41.394Z,14.40
2022-10-28T21:31:09.763Z,14.50
2022-10-28T21:33:38.090Z,14.50
2022-10-28T21:36:08.238Z,14.50
2022-10-28T21:38:36.080Z,14.50
2022-10-28T21:41:04.170Z,14.40
2022-10-28T21:43:33.236Z,14.40
2022-10-28T21:46:00.020Z,14.30
2022-10-28T21:48:28.069Z,14.20
2022-10-28T21:50:59.588Z,14.20
2022-10-28T21:53:26.667Z,14.10
2022-10-28T21:55:55.465Z,14.10
2022-10-28T21:58:22.381Z,14.00
2022-10-28T22:00:49.131Z,13.90
2022-10-28T22:03:15.842Z,13.90
2022-10-28T22:05:50.142Z,13.80
2022-10-28T22:08:17.833Z,13.90
2022-10-28T22:10:44.557Z,13.80
2022-10-28T22:13:11.269Z,13.70
2022-10-28T22:15:37.978Z,13.60
2022-10-28T22:18:04.937Z,13.70
2022-10-28T22:20:31.699Z,13.60
2022-10-28T22:22:58.528Z,13.60
2022-10-28T22:25:25.380Z,13.60
2022-10-28T22:27:52.066Z,13.50
2022-10-28T22:30:18.770Z,13.50
2022-10-28T22:32:45.471Z,13.50
2022-10-28T22:35:12.192Z,13.40
2022-10-28T22:37:38.901Z,13.40
2022-10-28T22:40:06.103Z,13.40
2022-10-28T22:42:32.782Z,13.40
2022-10-28T22:44:59.472Z,13.30
2022-10-28T22:47:26.145Z,13.40
2022-10-28T22:49:52.941Z,13.30
2022-10-28T22:52:19.636Z,13.30
2022-10-28T22:54:46.376Z,13.30
2022-10-28T22:57:13.123Z,13.20
2022-10-28T22:59:39.808Z,13.20
2022-10-28T23:02:06.559Z,13.20
2022-10-28T23:04:33.454Z,13.30
2022-10-28T23:07:00.123Z,13.30
2022-10-28T23:09:26.822Z,13.20
2022-10-28T23:11:53.577Z,13.10
2022-10-28T23:14:20.258Z,13.10
2022-10-28T23:16:49.035Z,13.00
2022-10-28T23:19:15.737Z,13.00
2022-10-28T23:21:42.436Z,13.00
2022-10-28T23:24:09.258Z,13.00
2022-10-28T23:26:36.184Z,13.00
2022-10-28T23:29:03.028Z,13.00
2022-10-28T23:31:29.800Z,13.00
2022-10-28T23:33:56.920Z,12.90
2022-10-28T23:36:23.688Z,13.00
2022-10-28T23:38:50.394Z,13.00
2022-10-28T23:41:18.975Z,13.00
2022-10-28T23:43:46.623Z,12.90
2022-10-28T23:46:13.360Z,13.00
2022-10-28T23:48:40.149Z,13.00
2022-10-28T23:51:07.293Z,13.00
2022-10-28T23:53:34.221Z,13.00
2022-10-28T23:56:00.981Z,12.90
2022-10-28T23:58:27.764Z,12.90
